createdAt,value
2022-09-02T00:00:30.568Z,83.19
2022-09-02T00:01:34.354Z,82.94
2022-09-02T00:02:36.289Z,83.01
2022-09-02T00:03:38.272Z,83.00
2022-09-02T00:04:40.223Z,83.19
2022-09-02T00:05:42.331Z,83.30
2022-09-02T00:06:45.663Z,83.09
2022-09-02T00:07:47.500Z,82.85
2022-09-02T00:08:49.430Z,82.81
2022-09-02T00:09:51.235Z,82.53
2022-09-02T00:10:53.630Z,82.82
2022-09-02T00:11:56.147Z,82.91
2022-09-02T00:12:58.149Z,83.09
2022-09-02T00:14:03.062Z,82.88
2022-09-02T00:15:05.957Z,83.03
2022-09-02T00:16:08.591Z,83.07
2022-09-02T00:17:10.465Z,83.03
2022-09-02T00:18:15.305Z,83.15
2022-09-02T00:19:22.266Z,83.15
2022-09-02T00:20:24.464Z,82.74
2022-09-02T00:21:27.042Z,82.98
2022-09-02T00:22:28.875Z,83.17
2022-09-02T00:23:30.824Z,83.09
2022-09-02T00:24:32.888Z,83.13
2022-09-02T00:25:35.645Z,83.07
2022-09-02T00:26:37.481Z,82.89
2022-09-02T00:27:39.399Z,82.97
2022-09-02T00:28:51.093Z,82.98
2022-09-02T00:29:58.610Z,82.74
2022-09-02T00:31:00.538Z,82.99
2022-09-02T00:32:02.368Z,83.00
2022-09-02T00:33:04.944Z,82.90
2022-09-02T00:34:07.116Z,82.92
2022-09-02T00:35:10.367Z,82.82
2022-09-02T00:36:12.844Z,83.04
2022-09-02T00:37:14.717Z,82.88
2022-09-02T00:38:17.341Z,82.70
2022-09-02T00:39:19.832Z,82.79
2022-09-02T00:40:23.553Z,82.76
2022-09-02T00:41:26.856Z,82.76
2022-09-02T00:42:28.709Z,82.72
2022-09-02T00:43:42.731Z,82.70
2022-09-02T00:44:44.591Z,82.71
2022-09-02T00:45:46.488Z,82.72
2022-09-02T00:46:48.373Z,82.83
2022-09-02T00:47:52.856Z,82.72
2022-09-02T00:48:55.801Z,82.66
2022-09-02T00:49:58.734Z,82.84
2022-09-02T00:51:03.688Z,82.94
2022-09-02T00:52:11.954Z,83.17
2022-09-02T00:53:14.409Z,82.88
2022-09-02T00:54:17.150Z,82.67
2022-09-02T00:55:20.960Z,82.55
2022-09-02T00:56:25.391Z,82.50
2022-09-02T00:57:29.681Z,82.74
2022-09-02T00:58:33.764Z,82.54
2022-09-02T00:59:54.320Z,82.49
2022-09-02T01:00:58.049Z,82.39
2022-09-02T01:02:00.413Z,82.67
2022-09-02T01:03:04.308Z,82.89
2022-09-02T01:04:06.745Z,82.42
2022-09-02T01:05:11.111Z,82.54
2022-09-02T01:06:15.721Z,82.43
2022-09-02T01:07:17.526Z,82.52
2022-09-02T01:08:21.843Z,82.66
2022-09-02T01:09:23.729Z,82.55
2022-09-02T01:10:34.659Z,82.83
2022-09-02T01:11:39.244Z,82.92
2022-09-02T01:12:41.523Z,82.86
2022-09-02T01:13:43.781Z,82.74
2022-09-02T01:14:45.660Z,82.50
2022-09-02T01:15:49.577Z,82.33
2022-09-02T01:16:53.559Z,82.84
2022-09-02T01:17:55.384Z,83.12
2022-09-02T01:18:59.430Z,83.18
2022-09-02T01:20:12.139Z,82.74
2022-09-02T01:21:14.596Z,83.07
2022-09-02T01:22:17.990Z,82.91
2022-09-02T01:23:19.915Z,82.97
2022-09-02T01:24:23.725Z,82.65
2022-09-02T01:25:28.207Z,82.72
2022-09-02T01:26:30.084Z,82.60
2022-09-02T01:27:31.927Z,82.27
2022-09-02T01:28:33.920Z,82.24
2022-09-02T01:29:36.032Z,82.63
2022-09-02T01:30:41.625Z,82.76
2022-09-02T01:31:43.792Z,82.66
2022-09-02T01:32:45.726Z,82.59
2022-09-02T01:33:47.579Z,82.57
2022-09-02T01:34:49.320Z,82.63
2022-09-02T01:35:51.551Z,82.62
2022-09-02T01:36:53.386Z,82.60
2022-09-02T01:37:56.648Z,82.72
2022-09-02T01:38:58.662Z,82.56
2022-09-02T01:40:01.017Z,82.66
2022-09-02T01:41:02.826Z,82.65
2022-09-02T01:42:04.830Z,82.78
2022-09-02T01:43:09.755Z,83.06
2022-09-02T01:44:12.526Z,83.30
2022-09-02T01:45:15.545Z,83.35
2022-09-02T01:46:17.427Z,83.27
2022-09-02T01:47:24.387Z,83.41
2022-09-02T01:48:26.462Z,83.48
2022-09-02T01:49:28.257Z,83.44
2022-09-02T01:50:31.767Z,83.05
2022-09-02T01:51:33.594Z,83.46
2022-09-02T01:52:35.881Z,83.36
2022-09-02T01:53:37.662Z,83.22
2022-09-02T01:54:39.991Z,83.06
2022-09-02T01:55:42.086Z,83.12
2022-09-02T01:56:43.980Z,82.94
2022-09-02T01:57:46.106Z,82.89
2022-09-02T01:58:48.111Z,83.09
2022-09-02T01:59:49.900Z,82.72
2022-09-02T02:00:51.959Z,82.55
2022-09-02T02:01:54.727Z,82.83
2022-09-02T02:02:57.316Z,82.75
2022-09-02T02:03:59.406Z,82.74
2022-09-02T02:05:01.251Z,83.15
2022-09-02T02:06:07.918Z,83.31
2022-09-02T02:07:09.724Z,83.53
2022-09-02T02:08:11.604Z,83.46
2022-09-02T02:09:13.406Z,83.71
2022-09-02T02:10:17.704Z,83.35
2022-09-02T02:11:20.664Z,83.47
2022-09-02T02:12:22.543Z,83.37
2022-09-02T02:13:24.486Z,83.18
2022-09-02T02:14:26.361Z,82.89
2022-09-02T02:16:29.229Z,82.87
2022-09-02T02:17:31.089Z,82.92
2022-09-02T02:18:33.002Z,82.72
2022-09-02T02:19:35.624Z,82.75
2022-09-02T02:20:38.247Z,82.88
2022-09-02T02:21:40.780Z,82.78
2022-09-02T02:22:43.224Z,82.86
2022-09-02T02:23:45.139Z,82.67
2022-09-02T02:24:47.126Z,82.39
2022-09-02T02:25:48.943Z,82.26
2022-09-02T02:26:51.067Z,82.36
2022-09-02T02:27:53.282Z,82.15
2022-09-02T02:28:55.256Z,82.16
2022-09-02T02:29:57.477Z,82.36
2022-09-02T02:31:01.199Z,82.46
2022-09-02T02:32:03.725Z,82.31
2022-09-02T02:33:05.591Z,82.41
2022-09-02T02:34:07.493Z,82.55
2022-09-02T02:35:09.893Z,82.08
2022-09-02T02:36:11.765Z,82.17
2022-09-02T02:37:13.911Z,82.29
2022-09-02T02:38:16.121Z,82.44
2022-09-02T02:39:18.146Z,82.64
2022-09-02T02:40:21.402Z,82.45
2022-09-02T02:41:23.272Z,82.41
2022-09-02T02:42:25.041Z,82.30
2022-09-02T02:43:26.918Z,82.45
2022-09-02T02:44:29.649Z,82.51
2022-09-02T02:45:32.186Z,82.41
2022-09-02T02:46:35.901Z,82.38
2022-09-02T02:47:39.140Z,82.70
2022-09-02T02:48:41.050Z,83.10
2022-09-02T02:49:43.949Z,83.07
2022-09-02T02:50:45.698Z,82.87
2022-09-02T02:51:47.638Z,83.05
2022-09-02T02:52:49.634Z,82.81
2022-09-02T02:53:53.769Z,82.97
2022-09-02T02:54:57.601Z,82.84
2022-09-02T02:56:00.146Z,82.85
2022-09-02T02:57:03.163Z,83.03
2022-09-02T02:58:05.771Z,82.94
2022-09-02T02:59:07.736Z,82.85
2022-09-02T03:00:12.850Z,82.48
2022-09-02T03:01:14.677Z,81.98
2022-09-02T03:02:17.732Z,82.26
2022-09-02T03:03:19.999Z,82.69
2022-09-02T03:04:21.892Z,82.47
2022-09-02T03:05:23.917Z,82.51
2022-09-02T03:06:26.491Z,82.66
2022-09-02T03:07:29.057Z,82.54
2022-09-02T03:08:30.986Z,82.36
2022-09-02T03:09:32.958Z,82.32
2022-09-02T03:10:34.856Z,82.50
2022-09-02T03:11:36.670Z,82.81
2022-09-02T03:12:39.831Z,82.86
2022-09-02T03:13:41.649Z,82.64
2022-09-02T03:14:45.204Z,82.78
2022-09-02T03:15:47.525Z,82.54
2022-09-02T03:16:49.287Z,82.59
2022-09-02T03:17:51.373Z,82.48
2022-09-02T03:18:53.334Z,82.47
2022-09-02T03:19:55.165Z,82.71
2022-09-02T03:20:57.050Z,82.16
2022-09-02T03:21:59.433Z,82.52
2022-09-02T03:23:01.454Z,82.45
2022-09-02T03:24:03.426Z,82.42
2022-09-02T03:25:06.397Z,82.31
2022-09-02T03:26:11.410Z,82.12
2022-09-02T03:27:13.681Z,82.23
2022-09-02T03:28:15.663Z,82.10
2022-09-02T03:29:17.486Z,82.29
2022-09-02T03:30:21.006Z,82.25
2022-09-02T03:31:24.356Z,82.19
2022-09-02T03:32:26.411Z,82.06
2022-09-02T03:33:32.783Z,81.26
2022-09-02T03:34:34.678Z,81.75
2022-09-02T03:35:39.754Z,81.79
2022-09-02T03:36:44.578Z,82.05
2022-09-02T03:37:48.704Z,81.92
2022-09-02T03:38:50.668Z,81.86
2022-09-02T03:39:52.475Z,81.84
2022-09-02T03:40:54.459Z,82.00
2022-09-02T03:41:56.425Z,82.02
2022-09-02T03:43:00.465Z,81.73
2022-09-02T03:44:03.150Z,82.10
2022-09-02T03:45:06.695Z,82.10
2022-09-02T03:46:10.065Z,81.84
2022-09-02T03:47:14.354Z,81.48
2022-09-02T03:48:16.141Z,80.81
2022-09-02T03:49:18.010Z,80.93
2022-09-02T03:50:40.185Z,80.78
2022-09-02T03:51:43.378Z,80.89
2022-09-02T03:52:45.337Z,81.23
2022-09-02T03:53:47.216Z,81.60
2022-09-02T03:54:49.244Z,81.78
2022-09-02T03:55:51.043Z,81.13
2022-09-02T03:56:52.945Z,81.28
2022-09-02T03:57:54.894Z,81.20
2022-09-02T03:58:56.926Z,81.58
2022-09-02T03:59:58.736Z,81.32
2022-09-02T04:01:01.342Z,81.25
2022-09-02T04:02:06.443Z,81.52
2022-09-02T04:03:08.457Z,81.50
2022-09-02T04:04:10.286Z,81.33
2022-09-02T04:05:15.730Z,81.08
2022-09-02T04:06:20.518Z,80.79
2022-09-02T04:07:22.273Z,80.77
2022-09-02T04:08:24.647Z,81.06
2022-09-02T04:09:26.585Z,80.93
2022-09-02T04:10:28.903Z,81.00
2022-09-02T04:11:30.734Z,80.89
2022-09-02T04:12:32.580Z,80.65
2022-09-02T04:13:34.805Z,80.71
2022-09-02T04:14:36.626Z,80.94
2022-09-02T04:15:48.442Z,81.15
2022-09-02T04:16:50.364Z,81.12
2022-09-02T04:17:52.209Z,81.29
2022-09-02T04:18:54.611Z,81.30
2022-09-02T04:19:56.446Z,81.39
2022-09-02T04:21:00.034Z,81.11
2022-09-02T04:22:01.856Z,80.88
2022-09-02T04:23:04.388Z,80.95
2022-09-02T04:24:07.258Z,80.90
2022-09-02T04:25:10.054Z,80.93
2022-09-02T04:26:13.626Z,81.12
2022-09-02T04:27:15.432Z,80.79
2022-09-02T04:28:17.220Z,80.94
2022-09-02T04:29:19.300Z,80.79
2022-09-02T04:30:21.160Z,80.94
2022-09-02T04:31:25.924Z,80.98
2022-09-02T04:32:27.819Z,80.89
2022-09-02T04:33:29.618Z,81.20
2022-09-02T04:34:31.478Z,81.16
2022-09-02T04:35:33.337Z,80.97
2022-09-02T04:36:35.206Z,81.25
2022-09-02T04:37:37.077Z,81.07
2022-09-02T04:38:39.032Z,80.61
2022-09-02T04:39:40.979Z,80.83
2022-09-02T04:40:44.675Z,80.98
2022-09-02T04:41:46.537Z,81.13
2022-09-02T04:42:48.437Z,80.74
2022-09-02T04:43:50.944Z,81.09
2022-09-02T04:44:54.882Z,81.02
2022-09-02T04:45:57.845Z,81.15
2022-09-02T04:46:59.767Z,81.16
2022-09-02T04:48:01.695Z,80.95
2022-09-02T04:49:04.252Z,81.09
2022-09-02T04:50:06.811Z,81.01
2022-09-02T04:51:16.925Z,80.88
2022-09-02T04:52:19.329Z,80.34
2022-09-02T04:53:21.199Z,80.23
2022-09-02T04:54:23.117Z,80.19
2022-09-02T04:55:24.945Z,79.87
2022-09-02T04:56:28.006Z,79.91
2022-09-02T04:57:30.083Z,80.16
2022-09-02T04:58:31.925Z,80.40
2022-09-02T04:59:36.644Z,80.87
2022-09-02T05:00:39.778Z,80.74
2022-09-02T05:01:43.197Z,80.28
2022-09-02T05:02:45.266Z,80.51
2022-09-02T05:03:47.976Z,80.61
2022-09-02T05:04:50.178Z,80.86
2022-09-02T05:05:59.086Z,80.93
2022-09-02T05:07:03.830Z,80.92
2022-09-02T05:08:05.676Z,80.88
2022-09-02T05:09:08.805Z,80.60
2022-09-02T05:10:13.088Z,80.85
2022-09-02T05:11:20.652Z,80.39
2022-09-02T05:12:22.453Z,80.75
2022-09-02T05:13:24.886Z,80.44
2022-09-02T05:14:26.847Z,80.51
2022-09-02T05:15:32.109Z,80.65
2022-09-02T05:16:37.116Z,80.27
2022-09-02T05:17:38.961Z,80.40
2022-09-02T05:18:40.785Z,80.37
2022-09-02T05:19:42.665Z,80.63
2022-09-02T05:20:44.611Z,80.45
2022-09-02T05:21:47.333Z,80.51
2022-09-02T05:22:50.943Z,80.55
2022-09-02T05:23:54.520Z,80.49
2022-09-02T05:24:57.142Z,80.62
2022-09-02T05:25:59.054Z,80.37
2022-09-02T05:27:00.952Z,80.23
2022-09-02T05:28:02.799Z,80.41
2022-09-02T05:29:08.767Z,80.21
2022-09-02T05:30:10.816Z,79.90
2022-09-02T05:31:14.447Z,79.75
2022-09-02T05:32:16.461Z,80.05
2022-09-02T05:33:18.410Z,80.10
2022-09-02T05:34:20.287Z,80.20
2022-09-02T05:35:22.189Z,80.22
2022-09-02T05:36:24.025Z,80.25
2022-09-02T05:37:26.030Z,80.12
2022-09-02T05:38:27.930Z,80.30
2022-09-02T05:39:31.158Z,80.89
2022-09-02T05:40:34.916Z,80.89
2022-09-02T05:41:37.107Z,81.16
2022-09-02T05:42:39.982Z,80.78
2022-09-02T05:43:42.546Z,80.90
2022-09-02T05:44:45.360Z,80.85
2022-09-02T05:45:49.181Z,80.81
2022-09-02T05:46:51.065Z,80.42
2022-09-02T05:47:52.964Z,80.56
2022-09-02T05:49:07.916Z,80.86
2022-09-02T05:50:10.035Z,80.46
2022-09-02T05:51:16.085Z,80.59
2022-09-02T05:52:18.551Z,81.39
2022-09-02T05:53:20.512Z,81.16
2022-09-02T05:54:28.930Z,80.85
2022-09-02T05:55:30.708Z,80.96
2022-09-02T05:56:32.666Z,80.93
2022-09-02T05:57:34.417Z,80.88
2022-09-02T05:58:36.522Z,80.99
2022-09-02T05:59:40.461Z,80.91
2022-09-02T06:00:42.303Z,80.93
2022-09-02T06:01:44.526Z,80.94
2022-09-02T06:02:46.791Z,80.94
2022-09-02T06:03:48.893Z,80.83
2022-09-02T06:04:52.427Z,81.01
2022-09-02T06:05:55.745Z,81.06
2022-09-02T06:06:57.629Z,80.96
2022-09-02T06:07:59.503Z,81.09
2022-09-02T06:09:01.479Z,81.03
2022-09-02T06:10:03.338Z,80.97
2022-09-02T06:11:07.508Z,81.24
2022-09-02T06:12:09.325Z,81.36
2022-09-02T06:13:11.863Z,81.24
2022-09-02T06:14:14.347Z,81.18
2022-09-02T06:15:16.286Z,81.40
2022-09-02T06:16:19.892Z,81.06
2022-09-02T06:17:21.935Z,80.83
2022-09-02T06:18:24.296Z,80.99
2022-09-02T06:19:32.888Z,80.74
2022-09-02T06:20:34.914Z,80.31
2022-09-02T06:21:37.488Z,80.44
2022-09-02T06:22:39.451Z,80.89
2022-09-02T06:23:41.644Z,81.08
2022-09-02T06:24:43.570Z,81.11
2022-09-02T06:25:47.202Z,81.05
2022-09-02T06:26:49.575Z,81.28
2022-09-02T06:27:51.375Z,81.03
2022-09-02T06:28:53.264Z,81.03
2022-09-02T06:29:55.174Z,80.74
2022-09-02T06:30:58.143Z,80.81
2022-09-02T06:32:00.041Z,80.73
2022-09-02T06:33:04.802Z,80.81
2022-09-02T06:34:06.728Z,81.06
2022-09-02T06:35:10.137Z,81.27
2022-09-02T06:36:14.359Z,81.30
2022-09-02T06:37:16.280Z,81.39
2022-09-02T06:38:18.274Z,81.51
2022-09-02T06:39:21.575Z,81.50
2022-09-02T06:40:23.464Z,81.17
2022-09-02T06:41:29.940Z,81.25
2022-09-02T06:42:31.841Z,81.37
2022-09-02T06:43:42.467Z,81.42
2022-09-02T06:44:44.662Z,81.07
2022-09-02T06:45:46.708Z,81.33
2022-09-02T06:46:54.175Z,81.49
2022-09-02T06:47:56.431Z,81.58
2022-09-02T06:48:59.086Z,81.54
2022-09-02T06:50:00.887Z,81.54
2022-09-02T06:51:02.872Z,81.26
2022-09-02T06:52:05.860Z,81.17
2022-09-02T06:53:09.452Z,81.52
2022-09-02T06:54:14.212Z,81.91
2022-09-02T06:55:18.359Z,81.93
2022-09-02T06:56:20.203Z,81.40
2022-09-02T06:57:22.046Z,81.37
2022-09-02T06:58:26.799Z,81.40
2022-09-02T06:59:28.701Z,81.35
2022-09-02T07:00:31.976Z,81.49
2022-09-02T07:01:34.742Z,81.17
2022-09-02T07:02:37.475Z,81.23
2022-09-02T07:03:57.666Z,81.11
2022-09-02T07:05:11.822Z,80.51
2022-09-02T07:06:13.781Z,80.25
2022-09-02T07:07:15.938Z,80.26
2022-09-02T07:08:17.661Z,80.36
2022-09-02T07:09:20.833Z,80.38
2022-09-02T07:10:23.391Z,79.72
2022-09-02T07:11:25.251Z,79.06
2022-09-02T07:12:27.643Z,79.17
2022-09-02T07:13:29.538Z,79.41
2022-09-02T07:14:31.437Z,79.69
2022-09-02T07:15:33.559Z,79.79
2022-09-02T07:16:38.105Z,79.15
2022-09-02T07:17:40.058Z,79.48
2022-09-02T07:18:42.059Z,79.56
2022-09-02T07:19:44.870Z,78.56
2022-09-02T07:20:48.154Z,78.84
2022-09-02T07:21:50.109Z,78.98
2022-09-02T07:23:53.906Z,78.06
2022-09-02T07:24:55.949Z,77.95
2022-09-02T07:25:57.792Z,78.72
2022-09-02T07:26:59.586Z,79.29
2022-09-02T07:28:01.573Z,79.57
2022-09-02T07:29:04.138Z,79.77
2022-09-02T07:30:07.038Z,78.64
2022-09-02T07:31:12.131Z,78.26
2022-09-02T07:32:14.025Z,77.62
2022-09-02T07:33:16.471Z,78.10
2022-09-02T07:34:18.595Z,78.12
2022-09-02T07:35:20.409Z,76.45
2022-09-02T07:36:22.158Z,77.01
2022-09-02T07:37:24.304Z,77.77
2022-09-02T07:38:26.447Z,78.57
2022-09-02T07:39:28.220Z,79.41
2022-09-02T07:40:30.356Z,79.37
2022-09-02T07:41:32.786Z,79.25
2022-09-02T07:42:34.622Z,79.31
2022-09-02T07:43:37.767Z,79.27
2022-09-02T07:44:39.563Z,79.11
2022-09-02T07:45:43.644Z,79.27
2022-09-02T07:46:46.503Z,79.10
2022-09-02T07:47:49.877Z,78.57
2022-09-02T07:48:51.836Z,78.02
2022-09-02T07:51:15.417Z,77.20
2022-09-02T07:52:17.295Z,76.56
2022-09-02T07:53:19.621Z,76.65
2022-09-02T07:54:22.963Z,76.70
2022-09-02T07:55:25.871Z,76.60
2022-09-02T07:56:27.728Z,76.32
2022-09-02T07:57:29.597Z,76.49
2022-09-02T07:58:32.291Z,76.96
2022-09-02T07:59:35.181Z,77.70
2022-09-02T08:00:37.619Z,77.17
2022-09-02T08:01:39.953Z,77.30
2022-09-02T08:02:42.010Z,77.01
2022-09-02T08:03:45.346Z,76.93
2022-09-02T08:04:47.227Z,76.48
2022-09-02T08:05:49.217Z,77.23
2022-09-02T08:06:52.498Z,76.59
2022-09-02T08:07:54.365Z,77.06
2022-09-02T08:08:56.239Z,76.85
2022-09-02T08:10:01.354Z,76.66
2022-09-02T08:11:04.046Z,74.97
2022-09-02T08:12:06.422Z,73.26
2022-09-02T08:13:08.450Z,74.42
2022-09-02T08:14:12.331Z,75.20
2022-09-02T08:15:15.152Z,75.27
2022-09-02T08:16:17.839Z,75.63
2022-09-02T08:17:20.916Z,75.73
2022-09-02T08:18:23.217Z,75.81
2022-09-02T08:19:25.494Z,75.83
2022-09-02T08:20:28.035Z,76.48
2022-09-02T08:21:29.909Z,76.21
2022-09-02T08:22:35.828Z,75.09
2022-09-02T08:23:37.978Z,75.27
2022-09-02T08:24:39.970Z,74.29
2022-09-02T08:25:42.370Z,73.81
2022-09-02T08:26:44.250Z,74.10
2022-09-02T08:27:46.643Z,74.33
2022-09-02T08:28:48.525Z,74.54
2022-09-02T08:29:50.317Z,73.83
2022-09-02T08:30:52.926Z,73.53
2022-09-02T08:31:55.457Z,73.65
2022-09-02T08:32:57.566Z,74.36
2022-09-02T08:33:59.934Z,74.85
2022-09-02T08:35:03.193Z,75.62
2022-09-02T08:36:06.759Z,72.91
2022-09-02T08:37:08.616Z,73.33
2022-09-02T08:38:10.429Z,74.25
2022-09-02T08:39:12.436Z,74.62
2022-09-02T08:40:17.290Z,74.21
2022-09-02T08:41:23.643Z,73.86
2022-09-02T08:42:25.469Z,74.46
2022-09-02T08:43:29.567Z,75.34
2022-09-02T08:44:33.125Z,74.67
2022-09-02T08:45:39.141Z,74.56
2022-09-02T08:46:41.485Z,73.10
2022-09-02T08:47:47.490Z,72.97
2022-09-02T08:49:08.983Z,73.41
2022-09-02T08:50:14.319Z,73.77
2022-09-02T08:51:25.533Z,72.13
2022-09-02T08:52:43.390Z,71.40
2022-09-02T08:54:11.299Z,72.86
2022-09-02T08:55:22.855Z,73.35
2022-09-02T08:56:26.846Z,73.06
2022-09-02T08:57:29.055Z,73.54
2022-09-02T08:58:38.449Z,72.58
2022-09-02T09:00:51.593Z,73.13
2022-09-02T09:02:09.791Z,72.37
2022-09-02T09:03:20.396Z,72.59
2022-09-02T09:04:25.154Z,74.61
2022-09-02T09:05:35.656Z,73.89
2022-09-02T09:06:40.122Z,73.43
2022-09-02T09:08:00.237Z,73.67
2022-09-02T09:09:11.027Z,73.12
2022-09-02T09:10:25.806Z,75.31
2022-09-02T09:11:40.228Z,72.86
2022-09-02T09:12:49.949Z,73.18
2022-09-02T09:14:00.111Z,72.65
2022-09-02T09:15:12.316Z,72.07
2022-09-02T09:16:15.952Z,72.28
2022-09-02T09:17:24.038Z,71.63
2022-09-02T09:18:38.103Z,72.68
2022-09-02T09:19:45.909Z,72.62
2022-09-02T09:20:48.960Z,73.31
2022-09-02T09:21:50.837Z,72.89
2022-09-02T09:22:57.152Z,72.79
2022-09-02T09:24:01.863Z,70.57
2022-09-02T09:25:07.700Z,69.46
2022-09-02T09:26:13.959Z,69.77
2022-09-02T09:27:17.226Z,69.32
2022-09-02T09:28:19.080Z,69.99
2022-09-02T09:29:21.291Z,70.14
2022-09-02T09:30:23.623Z,70.10
2022-09-02T09:31:31.470Z,69.76
2022-09-02T09:32:35.313Z,69.27
2022-09-02T09:33:37.138Z,68.04
2022-09-02T09:34:54.521Z,68.39
2022-09-02T09:35:58.928Z,68.86
2022-09-02T09:37:00.734Z,68.72
2022-09-02T09:38:12.465Z,69.71
2022-09-02T09:39:22.158Z,69.12
2022-09-02T09:40:28.556Z,69.18
2022-09-02T09:41:30.405Z,68.44
2022-09-02T09:42:36.567Z,68.10
2022-09-02T09:43:38.354Z,66.95
2022-09-02T09:44:47.261Z,68.61
2022-09-02T09:45:50.286Z,67.98
2022-09-02T09:47:02.257Z,67.80
2022-09-02T09:48:31.982Z,67.96
2022-09-02T09:49:34.173Z,67.30
2022-09-02T09:50:36.106Z,67.63
2022-09-02T09:51:49.863Z,67.17
2022-09-02T09:52:52.282Z,67.17
2022-09-02T09:54:15.365Z,65.61
2022-09-02T09:55:24.370Z,65.26
2022-09-02T09:56:29.526Z,65.71
2022-09-02T09:57:35.743Z,66.50
2022-09-02T09:58:39.476Z,64.92
2022-09-02T09:59:47.574Z,65.52
2022-09-02T10:00:49.912Z,65.67
2022-09-02T10:01:52.299Z,64.79
2022-09-02T10:02:59.096Z,63.82
2022-09-02T10:04:43.363Z,63.44
2022-09-02T10:05:45.816Z,63.64
2022-09-02T10:06:49.188Z,63.98
2022-09-02T10:07:59.506Z,62.71
2022-09-02T10:09:02.929Z,63.70
2022-09-02T10:10:24.006Z,62.62
2022-09-02T10:11:27.161Z,63.41
2022-09-02T10:12:33.940Z,63.42
2022-09-02T10:13:37.121Z,62.60
2022-09-02T10:14:46.207Z,61.99
2022-09-02T10:16:08.296Z,62.03
2022-09-02T10:17:17.020Z,60.81
2022-09-02T10:18:31.455Z,60.79
2022-09-02T10:20:11.780Z,61.62
2022-09-02T10:21:22.508Z,60.59
2022-09-02T10:22:44.715Z,60.09
2022-09-02T10:24:11.326Z,60.79
2022-09-02T10:25:28.880Z,58.72
2022-09-02T10:26:38.238Z,58.30
2022-09-02T10:27:40.015Z,58.33
2022-09-02T10:28:41.799Z,58.57
2022-09-02T10:29:51.497Z,57.46
2022-09-02T10:31:17.372Z,57.40
2022-09-02T10:32:25.903Z,58.59
2022-09-02T10:33:36.635Z,58.63
2022-09-02T10:34:44.472Z,56.69
2022-09-02T10:35:47.488Z,56.39
2022-09-02T10:37:07.888Z,56.15
2022-09-02T10:38:19.743Z,53.38
2022-09-02T10:39:47.759Z,56.47
2022-09-02T10:40:53.223Z,56.15
2022-09-02T10:41:59.378Z,57.00
2022-09-02T10:43:01.218Z,54.49
2022-09-02T10:44:03.175Z,55.95
2022-09-02T10:45:24.611Z,51.60
2022-09-02T10:46:27.241Z,52.87
2022-09-02T10:47:39.197Z,54.07
2022-09-02T10:48:46.907Z,54.04
2022-09-02T10:50:07.020Z,53.15
2022-09-02T10:51:17.798Z,53.48
2022-09-02T10:52:40.833Z,54.86
2022-09-02T10:53:48.495Z,52.80
2022-09-02T10:55:06.993Z,53.87
2022-09-02T10:56:11.751Z,52.70
2022-09-02T10:57:22.870Z,52.79
2022-09-02T10:58:30.757Z,53.46
2022-09-02T10:59:40.376Z,50.95
2022-09-02T11:00:45.197Z,53.74
2022-09-02T11:01:49.179Z,52.11
2022-09-02T11:03:08.425Z,51.65
2022-09-02T11:04:28.270Z,52.17
2022-09-02T11:05:49.762Z,51.99
2022-09-02T11:07:02.518Z,51.22
2022-09-02T11:08:10.287Z,52.54
2022-09-02T11:09:24.264Z,51.46
2022-09-02T11:10:31.478Z,52.12
2022-09-02T11:11:57.138Z,51.63
2022-09-02T11:13:05.217Z,49.17
2022-09-02T11:14:07.664Z,47.34
2022-09-02T11:15:17.894Z,51.38
2022-09-02T11:16:38.563Z,49.79
2022-09-02T11:17:53.096Z,49.52
2022-09-02T11:19:03.901Z,50.21
2022-09-02T11:20:13.123Z,50.65
2022-09-02T11:21:15.132Z,50.74
2022-09-02T11:22:28.589Z,49.23
2022-09-02T11:23:46.964Z,49.71
2022-09-02T11:24:52.881Z,48.85
2022-09-02T11:26:01.846Z,49.80
2022-09-02T11:27:25.912Z,49.96
2022-09-02T11:28:42.351Z,49.75
2022-09-02T11:30:04.384Z,50.53
2022-09-02T11:31:10.542Z,47.97
2022-09-02T11:32:18.472Z,48.07
2022-09-02T11:33:29.416Z,49.17
2022-09-02T11:34:35.879Z,47.82
2022-09-02T11:35:39.649Z,48.97
2022-09-02T11:36:42.186Z,50.34
2022-09-02T11:38:07.236Z,50.43
2022-09-02T11:39:21.873Z,48.67
2022-09-02T11:40:38.917Z,49.14
2022-09-02T11:41:56.436Z,46.98
2022-09-02T11:42:58.422Z,46.67
2022-09-02T11:44:12.925Z,47.26
2022-09-02T11:45:20.596Z,47.34
2022-09-02T11:46:39.974Z,47.01
2022-09-02T11:48:04.828Z,45.59
2022-09-02T11:49:25.913Z,47.11
2022-09-02T11:50:33.662Z,48.12
2022-09-02T11:51:52.810Z,47.98
2022-09-02T11:52:54.649Z,48.44
2022-09-02T11:53:57.601Z,46.96
2022-09-02T11:55:06.545Z,48.38
2022-09-02T11:56:08.482Z,46.36
2022-09-02T11:57:14.366Z,48.34
2022-09-02T11:58:31.482Z,47.04
2022-09-02T11:59:51.741Z,48.36
2022-09-02T12:01:01.051Z,45.60
2022-09-02T12:02:03.078Z,46.89
2022-09-02T12:03:16.760Z,46.98
2022-09-02T12:05:51.756Z,48.43
2022-09-02T12:07:08.693Z,46.90
2022-09-02T12:08:16.565Z,47.22
2022-09-02T12:09:38.364Z,48.81
2022-09-02T12:10:47.939Z,46.48
2022-09-02T12:11:51.078Z,47.16
2022-09-02T12:12:56.145Z,47.65
2022-09-02T12:14:00.864Z,47.13
2022-09-02T12:15:06.885Z,45.53
2022-09-02T12:16:24.282Z,48.28
2022-09-02T12:17:45.783Z,44.41
2022-09-02T12:18:58.534Z,44.79
2022-09-02T12:20:00.717Z,46.87
2022-09-02T12:21:07.805Z,45.56
2022-09-02T12:22:15.997Z,47.74
2022-09-02T12:23:37.095Z,48.05
2022-09-02T12:24:54.355Z,45.75
2022-09-02T12:26:03.023Z,46.77
2022-09-02T12:27:06.409Z,47.70
2022-09-02T12:28:19.114Z,45.66
2022-09-02T12:29:24.354Z,44.93
2022-09-02T12:30:45.631Z,43.72
2022-09-02T12:31:49.413Z,45.88
2022-09-02T12:32:51.315Z,46.37
2022-09-02T12:33:53.866Z,44.16
2022-09-02T12:34:56.914Z,45.15
2022-09-02T12:35:59.975Z,44.16
2022-09-02T12:37:02.947Z,45.00
2022-09-02T12:38:10.964Z,45.89
2022-09-02T12:39:27.737Z,46.24
2022-09-02T12:40:32.928Z,46.23
2022-09-02T12:41:42.809Z,47.34
2022-09-02T12:42:46.677Z,46.40
2022-09-02T12:43:58.126Z,46.30
2022-09-02T12:44:59.890Z,46.41
2022-09-02T12:46:24.570Z,46.75
2022-09-02T12:47:31.307Z,45.58
2022-09-02T12:48:45.710Z,44.55
2022-09-02T12:49:50.038Z,45.13
2022-09-02T12:50:58.842Z,45.99
2022-09-02T12:52:02.983Z,43.44
2022-09-02T12:53:11.520Z,45.65
2022-09-02T12:54:15.344Z,46.18
2022-09-02T12:55:27.891Z,44.43
2022-09-02T12:56:29.723Z,45.17
2022-09-02T12:57:42.440Z,46.25
2022-09-02T12:58:50.465Z,44.93
2022-09-02T12:59:59.187Z,45.46
2022-09-02T13:01:13.910Z,46.09
2022-09-02T13:02:30.424Z,43.37
2022-09-02T13:03:38.367Z,43.81
2022-09-02T13:04:46.257Z,43.81
2022-09-02T13:05:50.971Z,44.81
2022-09-02T13:06:52.778Z,41.75
2022-09-02T13:08:09.713Z,43.79
2022-09-02T13:09:11.731Z,44.79
2022-09-02T13:10:26.817Z,41.84
2022-09-02T13:11:34.719Z,43.76
2022-09-02T13:12:56.052Z,45.03
2022-09-02T13:14:18.080Z,44.41
2022-09-02T13:15:24.117Z,42.19
2022-09-02T13:16:37.726Z,44.42
2022-09-02T13:18:05.653Z,43.12
2022-09-02T13:19:12.555Z,44.10
2022-09-02T13:20:15.029Z,43.09
2022-09-02T13:21:22.744Z,43.07
2022-09-02T13:22:31.237Z,42.31
2022-09-02T13:23:35.849Z,44.18
2022-09-02T13:24:53.766Z,43.59
2022-09-02T13:26:27.422Z,42.76
2022-09-02T13:27:41.423Z,44.57
2022-09-02T13:29:02.085Z,44.06
2022-09-02T13:30:06.843Z,44.02
2022-09-02T13:31:08.652Z,43.81
2022-09-02T13:32:10.456Z,44.36
2022-09-02T13:33:12.639Z,45.09
2022-09-02T13:34:14.574Z,43.49
2022-09-02T13:35:18.314Z,41.98
2022-09-02T13:36:30.854Z,43.30
2022-09-02T13:37:39.174Z,43.98
2022-09-02T13:38:41.104Z,43.77
2022-09-02T13:39:42.958Z,44.47
2022-09-02T13:40:46.141Z,42.37
2022-09-02T13:41:49.530Z,44.53
2022-09-02T13:42:54.406Z,43.74
2022-09-02T13:44:09.643Z,44.07
2022-09-02T13:45:16.127Z,44.64
2022-09-02T13:46:18.065Z,42.03
2022-09-02T13:47:22.789Z,43.84
2022-09-02T13:48:24.706Z,43.74
2022-09-02T13:49:28.532Z,42.79
2022-09-02T13:50:31.098Z,42.98
2022-09-02T13:51:34.216Z,43.79
2022-09-02T13:53:34.444Z,44.39
2022-09-02T13:55:23.781Z,43.71
2022-09-02T13:56:28.044Z,42.60
2022-09-02T13:57:31.667Z,43.37
2022-09-02T13:58:35.709Z,43.12
2022-09-02T13:59:47.587Z,42.28
2022-09-02T14:00:49.673Z,42.83
2022-09-02T14:01:51.710Z,43.28
2022-09-02T14:02:59.639Z,43.70
2022-09-02T14:04:06.537Z,42.63
2022-09-02T14:05:16.620Z,44.06
2022-09-02T14:06:19.937Z,43.06
2022-09-02T14:07:38.229Z,43.29
2022-09-02T14:08:40.213Z,43.45
2022-09-02T14:09:42.684Z,43.08